createdAt,value
2016-03-31T18:04:16.631Z,940.85
2016-03-31T18:05:16.524Z,940.83
2016-03-31T18:06:16.480Z,940.86
2016-03-31T18:07:16.452Z,940.89
2016-03-31T18:08:16.391Z,940.89
2016-03-31T18:09:16.347Z,940.88
2016-03-31T18:10:16.303Z,940.89
2016-03-31T18:11:16.258Z,940.87
2016-03-31T18:12:16.199Z,940.87
2016-03-31T18:13:16.155Z,940.89
2016-03-31T18:14:16.110Z,940.9
2016-03-31T18:15:16.066Z,940.88
2016-03-31T18:16:16.022Z,940.85
2016-03-31T18:17:15.979Z,940.85
2016-03-31T18:18:15.935Z,940.79
2016-03-31T18:19:15.891Z,940.81
2016-03-31T18:20:15.830Z,940.8
2016-03-31T18:21:15.786Z,940.85
2016-03-31T18:22:15.743Z,940.88
2016-03-31T18:23:15.714Z,940.94
2016-03-31T18:24:15.654Z,940.95
2016-03-31T18:25:15.610Z,940.96
2016-03-31T18:26:15.566Z,940.93
2016-03-31T18:27:15.506Z,940.97
2016-03-31T18:28:15.462Z,941
2016-03-31T18:29:15.418Z,941.02
2016-03-31T18:30:15.373Z,941.08
2016-03-31T18:31:15.329Z,941.07
2016-03-31T18:32:15.270Z,941.07
2016-03-31T18:33:15.303Z,941.03
2016-03-31T18:34:15.181Z,941.03
2016-03-31T18:35:15.137Z,940.98
2016-03-31T18:36:15.092Z,940.99
2016-03-31T18:37:15.064Z,941.02
2016-03-31T18:38:15.020Z,940.98
2016-03-31T18:39:14.945Z,940.95
2016-03-31T18:40:14.900Z,940.96
2016-03-31T18:41:14.856Z,940.94
2016-03-31T18:42:14.812Z,940.91
2016-03-31T18:43:14.767Z,940.87
2016-03-31T18:44:14.723Z,940.91
2016-03-31T18:45:14.664Z,940.91
2016-03-31T18:46:14.619Z,940.97
2016-03-31T18:47:14.575Z,941
2016-03-31T18:48:14.547Z,941.05
2016-03-31T18:49:14.486Z,941
2016-03-31T18:50:14.442Z,940.98
2016-03-31T18:51:14.383Z,940.99
2016-03-31T18:52:14.339Z,940.98
2016-03-31T18:53:14.310Z,940.98
2016-03-31T18:54:14.249Z,940.98
2016-03-31T18:55:14.206Z,940.97
2016-03-31T18:56:14.162Z,940.96
2016-03-31T18:57:14.102Z,940.92
2016-03-31T18:58:14.057Z,940.95
2016-03-31T18:59:14.013Z,940.92
2016-03-31T19:00:13.970Z,940.95
2016-03-31T19:01:13.926Z,940.95
2016-03-31T19:02:13.882Z,940.98
2016-03-31T19:03:13.837Z,940.98
2016-03-31T19:04:13.777Z,940.99
2016-03-31T19:05:13.734Z,940.95
2016-03-31T19:06:13.689Z,940.98
2016-03-31T19:07:13.645Z,941.02
2016-03-31T19:08:13.595Z,940.99
2016-03-31T19:09:13.535Z,940.99
2016-03-31T19:10:13.491Z,940.97
2016-03-31T19:11:13.446Z,940.98
2016-03-31T19:12:13.402Z,940.96
2016-03-31T19:13:13.358Z,940.96
2016-03-31T19:14:13.313Z,941.03
2016-03-31T19:15:13.269Z,940.99
2016-03-31T19:16:13.210Z,940.99
2016-03-31T19:17:13.165Z,940.98
2016-03-31T19:18:13.121Z,940.98
2016-03-31T19:19:13.077Z,941.01
2016-03-31T19:20:13.032Z,940.96
2016-03-31T19:21:12.973Z,941.02
2016-03-31T19:22:12.945Z,941.01
2016-03-31T19:23:12.884Z,941.01
2016-03-31T19:24:12.841Z,940.96
2016-03-31T19:25:12.781Z,940.96
2016-03-31T19:26:12.737Z,940.98
2016-03-31T19:27:12.692Z,941
2016-03-31T19:28:12.648Z,941.02
2016-03-31T19:29:12.604Z,941.05
2016-03-31T19:30:12.545Z,941.06
2016-03-31T19:31:12.500Z,941.05
2016-03-31T19:32:12.456Z,941.06
2016-03-31T19:33:12.412Z,941.06
2016-03-31T19:34:12.367Z,941.12
2016-03-31T19:35:12.323Z,941.12
2016-03-31T19:36:12.264Z,941.12
2016-03-31T19:37:12.219Z,941.12
2016-03-31T19:38:12.175Z,941.12
2016-03-31T19:39:12.131Z,941.12
2016-03-31T19:40:12.086Z,941.08
2016-03-31T19:41:12.042Z,941.11
2016-03-31T19:42:11.982Z,941.05
2016-03-31T19:43:11.922Z,941.04
2016-03-31T19:44:11.895Z,941.05
2016-03-31T19:45:11.835Z,941.06
2016-03-31T19:46:11.791Z,941.03
2016-03-31T19:47:11.746Z,941.03
2016-03-31T19:48:11.686Z,941.01
2016-03-31T19:49:11.658Z,941.01
2016-03-31T19:50:11.598Z,941.04
2016-03-31T19:51:11.554Z,941.02
2016-03-31T19:52:11.510Z,940.98
2016-03-31T19:53:11.449Z,941
2016-03-31T19:54:11.421Z,941.04
2016-03-31T19:55:11.377Z,941.06
2016-03-31T19:56:11.318Z,941.1
2016-03-31T19:57:11.304Z,941.04
2016-03-31T19:58:11.213Z,941.06
2016-03-31T19:59:11.170Z,941.06
2016-03-31T20:00:11.126Z,941.05
2016-03-31T20:01:11.112Z,941.06
2016-03-31T20:02:11.021Z,941.12
2016-03-31T20:03:11.008Z,941.15
2016-03-31T20:04:10.933Z,941.15
2016-03-31T20:05:10.936Z,941.16
2016-03-31T20:06:10.875Z,941.14
2016-03-31T20:07:10.831Z,941.14
2016-03-31T20:08:10.754Z,941.12
2016-03-31T20:09:10.787Z,941.14
2016-03-31T20:10:10.619Z,941.15
2016-03-31T20:11:10.637Z,941.19
2016-03-31T20:12:10.545Z,941.18
2016-03-31T20:13:10.548Z,941.23
2016-03-31T20:14:10.426Z,941.2
2016-03-31T20:15:10.367Z,941.25
2016-03-31T20:16:10.360Z,941.23
2016-03-31T20:17:10.269Z,941.24
2016-03-31T20:18:10.224Z,941.2
2016-03-31T20:19:10.165Z,941.26
2016-03-31T20:20:10.121Z,941.19
2016-03-31T20:21:10.077Z,941.2
2016-03-31T20:22:10.030Z,941.22
2016-03-31T20:23:09.986Z,941.25
2016-03-31T20:24:09.927Z,941.24
2016-03-31T20:25:09.882Z,941.24
2016-03-31T20:26:09.885Z,941.26
2016-03-31T20:27:09.793Z,941.27
2016-03-31T20:28:09.734Z,941.32
2016-03-31T20:29:09.690Z,941.34
2016-03-31T20:30:09.646Z,941.31
2016-03-31T20:31:09.601Z,941.29
2016-03-31T20:32:09.542Z,941.25
2016-03-31T20:33:09.498Z,941.3
2016-03-31T20:34:09.437Z,941.35
2016-03-31T20:35:09.456Z,941.36
2016-03-31T20:36:09.350Z,941.34
2016-03-31T20:37:09.305Z,941.37
2016-03-31T20:38:09.245Z,941.38
2016-03-31T20:39:09.216Z,941.37
2016-03-31T20:40:09.156Z,941.38
2016-03-31T20:41:09.097Z,941.34
2016-03-31T20:42:09.053Z,941.34
2016-03-31T20:43:09.009Z,941.4
2016-03-31T20:44:08.949Z,941.36
2016-03-31T20:45:08.905Z,941.39
2016-03-31T20:46:08.845Z,941.4
2016-03-31T20:47:08.801Z,941.37
2016-03-31T20:48:08.757Z,941.38
2016-03-31T20:49:08.713Z,941.37
2016-03-31T20:50:08.652Z,941.35
2016-03-31T20:51:08.608Z,941.41
2016-03-31T20:52:08.564Z,941.4
2016-03-31T20:53:08.505Z,941.44
2016-03-31T20:54:08.460Z,941.41
2016-03-31T20:55:08.416Z,941.42
2016-03-31T20:56:08.372Z,941.46
2016-03-31T20:57:08.327Z,941.49
2016-03-31T20:58:08.268Z,941.49
2016-03-31T20:59:08.240Z,941.53
2016-03-31T21:00:08.164Z,941.54
2016-03-31T21:01:08.135Z,941.52
2016-03-31T21:02:08.075Z,941.55
2016-03-31T21:03:08.015Z,941.5
2016-03-31T21:04:07.987Z,941.52
2016-03-31T21:05:07.927Z,941.55
2016-03-31T21:06:07.883Z,941.59
2016-03-31T21:07:07.823Z,941.59
2016-03-31T21:08:07.779Z,941.56
2016-03-31T21:09:07.734Z,941.61
2016-03-31T21:10:07.675Z,941.65
2016-03-31T21:11:07.631Z,941.66
2016-03-31T21:12:07.587Z,941.68
2016-03-31T21:13:07.528Z,941.62
2016-03-31T21:14:07.483Z,941.61
2016-03-31T21:15:07.439Z,941.63
2016-03-31T21:16:07.394Z,941.67
2016-03-31T21:17:07.350Z,941.61
2016-03-31T21:18:07.291Z,941.65
2016-03-31T21:19:07.247Z,941.61
2016-03-31T21:20:07.187Z,941.61
2016-03-31T21:21:07.158Z,941.59
2016-03-31T21:22:07.099Z,941.65
2016-03-31T21:23:07.054Z,941.71
2016-03-31T21:24:06.994Z,941.68
2016-03-31T21:25:06.949Z,941.73
2016-03-31T21:26:06.890Z,941.7
2016-03-31T21:27:06.846Z,941.69
2016-03-31T21:28:06.802Z,941.72
2016-03-31T21:29:06.836Z,941.73
2016-03-31T21:30:06.713Z,941.71
2016-03-31T21:31:06.669Z,941.69
2016-03-31T21:32:06.609Z,941.62
2016-03-31T21:33:06.565Z,941.6
2016-03-31T21:34:06.506Z,941.6
2016-03-31T21:35:06.461Z,941.65
2016-03-31T21:36:06.417Z,941.67
2016-03-31T21:37:06.357Z,941.71
2016-03-31T21:38:06.313Z,941.67
2016-03-31T21:39:06.270Z,941.68
2016-03-31T21:40:06.209Z,941.72
2016-03-31T21:41:06.181Z,941.7
2016-03-31T21:42:06.121Z,941.72
2016-03-31T21:43:06.062Z,941.71
2016-03-31T21:44:06.017Z,941.77
2016-03-31T21:45:05.973Z,941.78
2016-03-31T21:46:05.913Z,941.82
2016-03-31T21:47:05.884Z,941.74
2016-03-31T21:48:05.825Z,941.66
2016-03-31T21:49:05.827Z,941.72
2016-03-31T21:50:05.752Z,941.79
2016-03-31T21:51:05.676Z,941.78
2016-03-31T21:52:05.617Z,941.74
2016-03-31T21:53:05.572Z,941.73
2016-03-31T21:54:05.528Z,941.75
2016-03-31T21:55:05.499Z,941.79
2016-03-31T21:56:05.433Z,941.77
2016-03-31T21:57:05.381Z,941.78
2016-03-31T21:58:05.321Z,941.8
2016-03-31T21:59:05.299Z,941.78
2016-03-31T22:00:05.224Z,941.77
2016-03-31T22:01:05.180Z,941.72
2016-03-31T22:02:05.120Z,941.7
2016-03-31T22:03:05.075Z,941.69
2016-03-31T22:04:05.032Z,941.72
2016-03-31T22:05:04.987Z,941.72
2016-03-31T22:06:04.928Z,941.74
2016-03-31T22:07:04.899Z,941.71
2016-03-31T22:08:04.823Z,941.72
2016-03-31T22:09:04.779Z,941.74
2016-03-31T22:10:04.751Z,941.73
2016-03-31T22:11:04.692Z,941.74
2016-03-31T22:12:04.647Z,941.75
2016-03-31T22:13:04.587Z,941.71
2016-03-31T22:14:04.543Z,941.71
2016-03-31T22:15:04.484Z,941.7
2016-03-31T22:16:04.454Z,941.69
2016-03-31T22:17:04.395Z,941.75
2016-03-31T22:18:04.335Z,941.77
2016-03-31T22:19:04.291Z,941.8
2016-03-31T22:20:04.247Z,941.82
2016-03-31T22:21:04.186Z,941.75
2016-03-31T22:22:04.142Z,941.75
2016-03-31T22:23:04.099Z,941.76
2016-03-31T22:24:04.039Z,941.75
2016-03-31T22:25:03.994Z,941.72
2016-03-31T22:26:03.935Z,941.71
2016-03-31T22:27:03.905Z,941.69
2016-03-31T22:28:03.847Z,941.67
2016-03-31T22:29:03.786Z,941.66
2016-03-31T22:30:03.743Z,941.68
2016-03-31T22:31:03.699Z,941.67
2016-03-31T22:32:03.638Z,941.66
2016-03-31T22:33:03.594Z,941.66
2016-03-31T22:34:03.535Z,941.72
2016-03-31T22:35:03.490Z,941.7
2016-03-31T22:36:03.446Z,941.72
2016-03-31T22:37:03.387Z,941.69
2016-03-31T22:38:03.339Z,941.68
2016-03-31T22:39:03.289Z,941.71
2016-03-31T22:40:03.223Z,941.73
2016-03-31T22:41:03.173Z,941.73
2016-03-31T22:42:03.124Z,941.7
2016-03-31T22:43:03.059Z,941.71
2016-03-31T22:44:03.013Z,941.72
2016-03-31T22:45:02.951Z,941.71
2016-03-31T22:46:02.905Z,941.71
2016-03-31T22:47:02.858Z,941.69
2016-03-31T22:48:02.813Z,941.64
2016-03-31T22:49:02.752Z,941.6
2016-03-31T22:50:02.708Z,941.61
2016-03-31T22:51:02.662Z,941.64
2016-03-31T22:52:02.617Z,941.71
2016-03-31T22:53:02.556Z,941.69
2016-03-31T22:54:02.496Z,941.62
2016-03-31T22:55:02.452Z,941.65
2016-03-31T22:56:02.392Z,941.61
2016-03-31T22:57:02.348Z,941.61
2016-03-31T22:58:02.303Z,941.63
2016-03-31T22:59:02.242Z,941.63
2016-03-31T23:00:02.199Z,941.59
2016-03-31T23:01:02.138Z,941.55
2016-03-31T23:02:02.111Z,941.58
2016-03-31T23:03:02.035Z,941.55
2016-03-31T23:04:02.022Z,941.55
2016-03-31T23:05:01.947Z,941.55
2016-03-31T23:06:01.886Z,941.54
2016-03-31T23:07:01.842Z,941.53
2016-03-31T23:08:01.813Z,941.48
2016-03-31T23:09:01.755Z,941.49
2016-03-31T23:10:01.694Z,941.48
2016-03-31T23:11:01.635Z,941.5
2016-03-31T23:12:01.591Z,941.53
2016-03-31T23:13:01.547Z,941.54
2016-03-31T23:14:01.486Z,941.51
2016-03-31T23:15:01.443Z,941.51
2016-03-31T23:16:01.398Z,941.52
2016-03-31T23:17:01.338Z,941.47
2016-03-31T23:18:01.294Z,941.47
2016-03-31T23:19:01.235Z,941.47
2016-03-31T23:20:01.190Z,941.51
2016-03-31T23:21:01.130Z,941.44
2016-03-31T23:22:01.086Z,941.41
2016-03-31T23:23:01.042Z,941.4
2016-03-31T23:24:00.982Z,941.4
2016-03-31T23:25:00.938Z,941.44
2016-03-31T23:26:00.893Z,941.5
2016-03-31T23:27:00.834Z,941.52
2016-03-31T23:28:00.790Z,941.51
2016-03-31T23:29:00.730Z,941.52
2016-03-31T23:30:00.686Z,941.53
2016-03-31T23:31:00.625Z,941.53
2016-03-31T23:32:00.582Z,941.53
2016-03-31T23:33:00.537Z,941.54
2016-03-31T23:34:00.478Z,941.52
2016-03-31T23:35:00.434Z,941.49
2016-03-31T23:36:00.374Z,941.51
2016-03-31T23:37:00.330Z,941.56
2016-03-31T23:38:00.269Z,941.48
2016-03-31T23:39:00.226Z,941.46
2016-03-31T23:40:00.181Z,941.52
2016-03-31T23:41:00.121Z,941.5
2016-03-31T23:42:00.077Z,941.54
2016-03-31T23:43:00.033Z,941.56
2016-03-31T23:43:59.973Z,941.59
2016-03-31T23:44:59.929Z,941.56
2016-03-31T23:45:59.869Z,941.57
2016-03-31T23:46:59.825Z,941.56
2016-03-31T23:47:59.765Z,941.54
2016-03-31T23:48:59.721Z,941.53
2016-03-31T23:49:59.662Z,941.59
2016-03-31T23:50:59.617Z,941.6
2016-03-31T23:51:59.573Z,941.64
2016-03-31T23:52:59.513Z,941.62
2016-03-31T23:53:59.469Z,941.64
2016-03-31T23:54:59.409Z,941.59
2016-03-31T23:55:59.364Z,941.5
2016-03-31T23:56:59.306Z,941.51
2016-03-31T23:57:59.261Z,941.52
2016-03-31T23:58:59.216Z,941.52
2016-03-31T23:59:59.173Z,941.52
